Time;durP1;ratioP1;P1;durP2;ratioP2;P2;SDS_P1;SDS_P2;PMS_P1;PMS_P2;Temp;Humidity;BMP_temperature;BMP_pressure;BME280_temperature;BME280_humidity;BME280_pressure;Samples;Min_cycle;Max_cycle;Signal;HPM_P1;HPM_P2
2022/11/23 00:01:39;;;;;;;7.37;4.87;;;8.90;45.90;;;;;;10393252;28;20271;-76
2022/11/23 00:06:46;;;;;;;4.60;4.10;;;9.00;46.00;;;;;;10400374;28;20226;-76
2022/11/23 00:11:50;;;;;;;5.30;4.60;;;9.00;46.00;;;;;;10404601;28;20795;-75
2022/11/23 00:16:53;;;;;;;4.03;3.63;;;9.00;46.00;;;;;;10404109;28;20232;-75
2022/11/23 00:21:58;;;;;;;4.80;4.03;;;9.00;46.00;;;;;;10404331;28;20233;-75
2022/11/23 00:27:01;;;;;;;5.03;4.30;;;9.00;46.00;;;;;;10400007;28;20732;-75
2022/11/23 00:32:05;;;;;;;4.50;4.10;;;9.00;46.00;;;;;;10403575;28;20233;-75
2022/11/23 00:37:09;;;;;;;4.07;3.67;;;9.00;46.00;;;;;;10399427;28;20237;-75
2022/11/23 00:42:13;;;;;;;4.57;3.87;;;9.00;46.00;;;;;;10400582;28;20233;-75
2022/11/23 00:47:16;;;;;;;4.43;4.00;;;9.00;46.00;;;;;;10403580;28;20229;-75
2022/11/23 00:52:20;;;;;;;4.80;4.10;;;9.00;46.00;;;;;;10401906;28;20667;-75
2022/11/23 00:57:23;;;;;;;5.23;4.67;;;9.00;46.00;;;;;;10399533;28;20228;-75
2022/11/23 01:02:27;;;;;;;5.20;4.40;;;9.00;46.00;;;;;;10403735;28;20233;-75
2022/11/23 01:07:31;;;;;;;4.37;3.50;;;9.00;46.00;;;;;;10405755;28;20240;-75
2022/11/23 01:12:34;;;;;;;3.73;3.43;;;8.90;45.90;;;;;;10400616;28;20234;-75
2022/11/23 01:17:37;;;;;;;4.03;3.63;;;9.00;46.00;;;;;;10404274;28;20917;-75
2022/11/23 01:22:42;;;;;;;4.43;4.00;;;9.00;46.00;;;;;;10401257;28;20233;-75
2022/11/23 01:27:45;;;;;;;4.00;3.70;;;9.00;46.00;;;;;;10402084;28;20241;-75
2022/11/23 01:32:49;;;;;;;4.47;3.97;;;9.00;46.00;;;;;;10400696;28;20329;-75
2022/11/23 01:37:54;;;;;;;4.30;3.90;;;9.00;45.80;;;;;;10403330;28;20229;-75
2022/11/23 01:42:59;;;;;;;4.00;3.70;;;8.90;45.70;;;;;;10398625;28;20226;-75
2022/11/23 01:48:04;;;;;;;4.73;4.00;;;8.90;45.60;;;;;;10400690;28;20240;-73
2022/11/23 01:53:09;;;;;;;4.37;3.97;;;8.90;45.70;;;;;;10399303;28;20237;-75
2022/11/23 01:58:15;;;;;;;4.30;3.90;;;8.90;45.80;;;;;;10396194;28;20233;-75
2022/11/23 02:03:18;;;;;;;4.60;4.20;;;8.90;45.90;;;;;;10397942;28;20310;-75
2022/11/23 02:08:23;;;;;;;4.77;4.10;;;8.80;45.80;;;;;;10400468;28;20246;-75
2022/11/23 02:13:28;;;;;;;4.23;3.77;;;8.80;45.80;;;;;;10396865;28;20237;-75
2022/11/23 02:18:34;;;;;;;4.57;3.63;;;8.80;45.80;;;;;;10401915;28;20225;-75
2022/11/23 02:23:47;;;;;;;3.63;3.33;;;8.80;45.80;;;;;;10394105;28;20606;-75
2022/11/23 02:28:56;;;;;;;4.43;3.97;;;8.80;46.40;;;;;;10395693;28;20237;-75
2022/11/23 02:33:59;;;;;;;3.10;2.83;;;8.70;45.50;;;;;;10397484;28;20233;-76
2022/11/23 02:39:07;;;;;;;3.83;3.20;;;8.70;45.80;;;;;;10396970;28;20852;-74
2022/11/23 02:44:29;;;;;;;4.13;3.80;;;8.60;45.70;;;;;;10398069;28;20584;-75
2022/11/23 02:49:32;;;;;;;4.97;3.60;;;8.50;45.60;;;;;;10397755;28;20248;-75
2022/11/23 02:54:36;;;;;;;6.93;3.80;;;8.60;45.70;;;;;;10397808;28;20240;-75
2022/11/23 02:59:41;;;;;;;4.50;3.77;;;8.60;45.40;;;;;;10399875;28;20233;-75
2022/11/23 03:04:44;;;;;;;3.13;2.93;;;8.50;45.30;;;;;;10395862;28;20229;-75
2022/11/23 03:09:47;;;;;;;3.20;2.90;;;8.40;45.50;;;;;;10398975;28;20245;-70
2022/11/23 03:14:51;;;;;;;3.67;3.23;;;8.40;45.50;;;;;;10398893;28;20230;-70
2022/11/23 03:19:54;;;;;;;4.40;3.60;;;8.30;45.40;;;;;;10395505;28;20229;-70
2022/11/23 03:24:58;;;;;;;4.63;3.57;;;8.30;45.40;;;;;;10398272;28;20582;-70
2022/11/23 03:30:02;;;;;;;2.87;2.63;;;8.30;45.40;;;;;;10395603;28;20609;-70
2022/11/23 03:35:06;;;;;;;2.87;2.67;;;8.30;45.40;;;;;;10398515;28;20238;-70
2022/11/23 03:40:11;;;;;;;2.77;2.57;;;8.30;45.40;;;;;;10395279;28;20693;-70
2022/11/23 03:45:15;;;;;;;14.37;3.60;;;8.30;45.30;;;;;;10396266;28;20240;-70
2022/11/23 03:50:18;;;;;;;2.87;2.67;;;8.30;45.10;;;;;;10397269;28;20230;-70
2022/11/23 03:55:21;;;;;;;5.33;3.03;;;8.20;45.10;;;;;;10396146;28;20241;-70
2022/11/23 04:00:26;;;;;;;3.17;2.83;;;8.10;45.90;;;;;;10397716;28;20710;-70
2022/11/23 04:05:29;;;;;;;2.93;2.73;;;8.10;44.90;;;;;;10396877;28;20222;-75
2022/11/23 04:10:32;;;;;;;2.90;2.40;;;8.00;44.80;;;;;;10394497;28;20238;-75
2022/11/23 04:15:37;;;;;;;3.10;2.80;;;7.90;44.70;;;;;;10395975;28;20233;-70
2022/11/23 04:20:40;;;;;;;3.40;3.10;;;7.90;44.70;;;;;;10394368;28;20233;-70
2022/11/23 04:25:43;;;;;;;3.30;3.00;;;7.90;44.70;;;;;;10396044;28;20221;-70
2022/11/23 04:30:48;;;;;;;2.50;2.30;;;7.80;44.60;;;;;;10392223;28;20724;-70
2022/11/23 04:35:51;;;;;;;3.97;2.37;;;7.70;44.40;;;;;;10396197;28;20643;-70
2022/11/23 04:40:54;;;;;;;3.30;2.10;;;7.70;44.60;;;;;;10393477;28;20237;-70
2022/11/23 04:45:59;;;;;;;3.27;2.93;;;7.60;44.70;;;;;;10395076;28;20222;-70
2022/11/23 04:51:02;;;;;;;4.73;2.77;;;7.60;44.80;;;;;;10394309;28;20230;-70
2022/11/23 04:56:06;;;;;;;4.93;3.10;;;7.60;44.80;;;;;;10400953;28;21025;-71
2022/11/23 05:01:10;;;;;;;3.90;3.20;;;7.50;44.80;;;;;;10400255;28;20710;-70
2022/11/23 05:06:13;;;;;;;4.93;3.73;;;7.50;45.30;;;;;;10402619;28;20233;-70
2022/11/23 05:11:16;;;;;;;4.53;3.93;;;7.50;45.20;;;;;;10400366;28;20234;-70
2022/11/23 05:16:21;;;;;;;3.70;3.37;;;7.50;45.20;;;;;;10397739;28;20943;-70
2022/11/23 05:21:24;;;;;;;3.60;3.07;;;7.50;45.30;;;;;;10400062;28;20233;-70
2022/11/23 05:26:27;;;;;;;3.80;3.10;;;7.50;45.40;;;;;;10398718;28;20291;-70
2022/11/23 05:31:32;;;;;;;3.10;2.80;;;7.50;45.50;;;;;;10398364;28;20275;-70
2022/11/23 05:36:35;;;;;;;2.80;2.60;;;7.60;45.50;;;;;;10400614;28;20233;-70
2022/11/23 05:41:44;;;;;;;3.10;2.80;;;7.60;45.50;;;;;;10396015;28;20236;-68
2022/11/23 05:46:48;;;;;;;3.13;2.40;;;7.60;45.40;;;;;;10398410;28;20226;-67
2022/11/23 05:51:51;;;;;;;2.13;1.90;;;7.60;45.50;;;;;;10398265;28;20234;-67
2022/11/23 05:56:55;;;;;;;2.10;1.90;;;7.60;45.50;;;;;;10396357;28;20292;-67
2022/11/23 06:01:59;;;;;;;2.47;2.27;;;7.60;45.40;;;;;;10396767;28;20225;-67
2022/11/23 06:07:02;;;;;;;5.30;2.53;;;7.60;45.50;;;;;;10387882;28;20225;-68
2022/11/23 06:12:06;;;;;;;5.57;2.70;;;7.70;45.50;;;;;;10390706;28;20958;-67
2022/11/23 06:17:11;;;;;;;2.60;2.40;;;7.70;45.50;;;;;;10390852;28;20233;-67
2022/11/23 06:22:15;;;;;;;2.37;2.17;;;7.60;45.50;;;;;;10391642;28;20233;-68
2022/11/23 06:27:18;;;;;;;2.70;2.50;;;7.60;45.50;;;;;;10390181;28;20222;-67
2022/11/23 06:32:22;;;;;;;3.43;3.10;;;7.60;45.90;;;;;;10394528;28;20233;-67
2022/11/23 06:37:25;;;;;;;3.77;3.27;;;7.70;46.20;;;;;;10393913;28;20279;-67
2022/11/23 06:42:28;;;;;;;3.07;2.47;;;7.70;46.00;;;;;;10398291;28;20225;-67
2022/11/23 06:47:43;;;;;;;3.20;3.00;;;7.70;45.90;;;;;;10399004;28;20233;-67
2022/11/23 06:52:46;;;;;;;3.40;3.10;;;7.70;46.00;;;;;;10397623;28;20237;-75
2022/11/23 06:57:50;;;;;;;4.20;3.80;;;7.80;46.00;;;;;;10397646;28;20640;-75
2022/11/23 07:02:55;;;;;;;3.57;3.30;;;7.80;46.00;;;;;;10394598;28;20221;-76
2022/11/23 07:07:58;;;;;;;3.73;3.07;;;7.80;46.00;;;;;;10396704;28;20918;-75
2022/11/23 07:13:04;;;;;;;4.60;4.10;;;7.80;45.90;;;;;;10396176;28;20232;-76
2022/11/23 07:18:11;;;;;;;4.87;4.30;;;7.80;46.10;;;;;;10397239;28;20215;-70
2022/11/23 07:23:14;;;;;;;5.27;4.00;;;7.80;46.20;;;;;;10396485;28;20236;-69
2022/11/23 07:28:17;;;;;;;4.33;3.93;;;7.80;46.20;;;;;;10393648;28;20238;-70
2022/11/23 07:33:22;;;;;;;3.10;2.80;;;7.80;46.10;;;;;;10395480;28;20283;-70
2022/11/23 07:38:25;;;;;;;3.80;3.10;;;7.80;46.20;;;;;;10394024;28;20237;-69
2022/11/23 07:43:28;;;;;;;7.80;4.43;;;7.90;46.30;;;;;;10393506;28;20233;-70
2022/11/23 07:48:33;;;;;;;7.73;6.93;;;7.90;46.30;;;;;;10396816;28;20237;-69
2022/11/23 07:53:38;;;;;;;8.53;7.27;;;7.90;46.40;;;;;;10394120;28;20229;-69
2022/11/23 07:58:41;;;;;;;7.57;6.43;;;7.90;46.20;;;;;;10397650;28;20279;-70
2022/11/23 08:03:46;;;;;;;10.53;9.20;;;7.90;46.30;;;;;;10393820;28;20275;-67
2022/11/23 08:08:50;;;;;;;12.00;9.63;;;8.00;46.50;;;;;;10398623;28;20235;-67
2022/11/23 08:13:53;;;;;;;12.67;9.77;;;8.00;46.50;;;;;;10395557;28;20229;-69
2022/11/23 08:18:58;;;;;;;8.17;6.17;;;8.00;46.60;;;;;;10395340;28;20236;-70
2022/11/23 08:24:01;;;;;;;10.63;9.53;;;8.10;46.80;;;;;;10393224;28;20269;-70
2022/11/23 08:29:04;;;;;;;5.67;4.87;;;8.10;46.60;;;;;;10396534;28;20728;-70
2022/11/23 08:34:09;;;;;;;4.80;4.30;;;8.10;46.70;;;;;;10395105;28;20226;-70
2022/11/23 08:39:13;;;;;;;8.60;5.90;;;8.20;46.90;;;;;;10397731;28;20227;-69
2022/11/23 08:44:16;;;;;;;6.20;4.37;;;8.20;46.80;;;;;;10403444;28;20288;-69
2022/11/23 08:49:21;;;;;;;4.93;4.43;;;8.20;46.80;;;;;;10402331;28;20640;-69
2022/11/23 08:54:24;;;;;;;6.77;5.77;;;8.30;47.10;;;;;;10398446;28;20244;-70
2022/11/23 08:59:27;;;;;;;7.27;5.97;;;8.30;47.10;;;;;;10403558;28;20225;-70
2022/11/23 09:04:31;;;;;;;5.43;4.90;;;8.40;47.30;;;;;;10403083;28;20229;-70
2022/11/23 09:09:35;;;;;;;6.47;5.00;;;8.40;47.70;;;;;;10402387;28;20234;-70
2022/11/23 09:14:38;;;;;;;7.00;4.20;;;8.50;47.60;;;;;;10399996;28;20268;-70
2022/11/23 09:19:43;;;;;;;4.23;3.83;;;8.50;47.60;;;;;;10400051;28;20225;-70
2022/11/23 09:24:46;;;;;;;6.07;4.20;;;8.60;47.90;;;;;;10402213;28;20237;-70
2022/11/23 09:29:49;;;;;;;4.80;4.23;;;8.60;47.90;;;;;;10399030;28;20280;-70
2022/11/23 09:34:53;;;;;;;6.50;4.10;;;8.70;47.90;;;;;;10401014;28;20578;-70
2022/11/23 09:39:56;;;;;;;4.03;3.63;;;8.80;48.10;;;;;;10398627;28;20234;-70
2022/11/23 09:45:18;;;;;;;4.50;3.73;;;8.80;47.80;;;;;;10399957;28;20287;-70
2022/11/23 09:50:27;;;;;;;4.50;4.10;;;8.90;48.60;;;;;;10398413;28;20697;-72
2022/11/23 09:55:37;;;;;;;6.10;3.97;;;9.00;48.60;;;;;;10393564;28;20580;-71
2022/11/23 10:00:46;;;;;;;4.97;4.10;;;9.10;48.60;;;;;;10399034;28;20823;-70
2022/11/23 10:06:02;;;;;;;5.43;4.73;;;9.20;48.70;;;;;;10395055;28;20300;-71
2022/11/23 10:11:31;;;;;;;6.57;4.80;;;9.30;49.00;;;;;;10395840;28;20241;-72
2022/11/23 10:16:41;;;;;;;5.30;4.80;;;9.40;49.40;;;;;;10397850;28;20244;-72
2022/11/23 10:21:56;;;;;;;3.87;3.50;;;9.60;49.10;;;;;;10396149;28;20257;-71
2022/11/23 10:26:59;;;;;;;3.87;3.50;;;9.70;49.40;;;;;;10398853;28;20232;-71
2022/11/23 10:32:04;;;;;;;5.27;3.93;;;9.90;48.90;;;;;;10396365;28;20599;-71
2022/11/23 10:37:13;;;;;;;5.60;3.53;;;10.00;47.80;;;;;;10396842;28;20690;-71
2022/11/23 10:42:23;;;;;;;3.53;3.00;;;10.20;48.30;;;;;;10395998;28;20233;-72
2022/11/23 10:47:38;;;;;;;4.53;2.67;;;10.40;47.90;;;;;;10398267;28;20272;-71
2022/11/23 10:52:51;;;;;;;4.10;2.70;;;10.50;47.80;;;;;;10397200;28;20228;-71
2022/11/23 10:57:54;;;;;;;3.13;2.27;;;10.80;47.60;;;;;;10396573;28;20218;-71
2022/11/23 11:02:58;;;;;;;2.23;2.00;;;11.00;47.50;;;;;;10397282;28;20724;-71
2022/11/23 11:08:13;;;;;;;4.10;3.60;;;11.20;46.90;;;;;;10399832;28;20230;-71
2022/11/23 11:13:25;;;;;;;4.43;2.77;;;11.30;46.60;;;;;;10397450;28;20226;-71
2022/11/23 11:18:31;;;;;;;2.20;2.00;;;11.40;46.20;;;;;;10400176;28;20791;-71
2022/11/23 11:23:41;;;;;;;2.93;2.10;;;11.60;46.40;;;;;;10396310;28;20234;-71
2022/11/23 11:28:49;;;;;;;3.07;1.70;;;11.70;45.70;;;;;;10394989;28;20969;-74
2022/11/23 11:33:57;;;;;;;4.30;2.10;;;11.90;45.00;;;;;;10393449;28;20236;-74
2022/11/23 11:39:06;;;;;;;3.90;1.87;;;11.90;44.90;;;;;;10393039;28;20225;-74
2022/11/23 11:44:23;;;;;;;4.93;1.90;;;12.00;45.00;;;;;;10394494;28;20236;-74
2022/11/23 11:49:31;;;;;;;2.73;1.40;;;12.00;44.80;;;;;;10382777;28;20279;-74
2022/11/23 11:54:42;;;;;;;2.03;1.40;;;12.10;44.20;;;;;;10381170;28;20230;-75
2022/11/23 11:59:48;;;;;;;3.43;1.30;;;12.20;43.80;;;;;;10392714;28;20301;-74
2022/11/23 12:05:03;;;;;;;2.47;1.30;;;12.30;44.40;;;;;;10392102;28;20233;-74
2022/11/23 12:10:14;;;;;;;2.47;1.33;;;12.40;43.40;;;;;;10393579;28;20236;-74
2022/11/23 12:15:19;;;;;;;2.93;1.80;;;12.50;43.30;;;;;;10391985;28;20225;-74
2022/11/23 12:20:52;;;;;;;8.70;5.23;;;12.50;43.90;;;;;;10391436;28;20340;-74
2022/11/23 12:26:16;;;;;;;2.67;2.03;;;12.50;43.00;;;;;;10391899;28;20229;-74
2022/11/23 12:31:27;;;;;;;2.57;1.67;;;12.50;42.80;;;;;;10392895;28;20698;-74
2022/11/23 12:36:50;;;;;;;1.90;1.60;;;12.50;43.20;;;;;;10392054;28;20226;-73
2022/11/23 12:42:02;;;;;;;2.20;1.53;;;12.60;42.90;;;;;;10390911;28;20283;-75
2022/11/23 12:47:16;;;;;;;2.23;1.63;;;12.60;42.30;;;;;;10390133;28;20230;-75
2022/11/23 12:52:37;;;;;;;2.97;1.70;;;12.50;42.10;;;;;;10391820;28;20226;-73
2022/11/23 12:57:49;;;;;;;3.87;1.80;;;12.60;42.20;;;;;;10391596;28;20234;-75
2022/11/23 13:03:28;;;;;;;4.10;1.80;;;12.60;43.80;;;;;;10392079;28;20329;-75
2022/11/23 13:09:00;;;;;;;3.50;1.70;;;12.70;42.30;;;;;;10396229;28;20225;-75
2022/11/23 13:14:16;;;;;;;2.00;1.63;;;12.80;42.40;;;;;;10397752;28;20291;-74
2022/11/23 13:19:36;;;;;;;2.33;1.60;;;12.70;42.30;;;;;;10402073;28;20218;-76
2022/11/23 13:24:41;;;;;;;2.17;1.67;;;12.70;42.30;;;;;;10400691;28;20240;-75
2022/11/23 13:29:57;;;;;;;1.80;1.70;;;12.80;42.40;;;;;;10401140;28;20240;-76
2022/11/23 13:35:00;;;;;;;3.73;1.70;;;12.80;41.60;;;;;;10401022;28;20232;-75
2022/11/23 13:40:05;;;;;;;4.10;1.63;;;12.80;42.40;;;;;;10399670;28;20246;-73
2022/11/23 13:45:25;;;;;;;2.67;1.40;;;12.80;43.10;;;;;;10400798;28;20238;-74
2022/11/23 13:50:29;;;;;;;2.80;1.50;;;12.70;41.00;;;;;;10397884;28;20244;-74
2022/11/23 13:55:35;;;;;;;3.73;1.43;;;12.70;42.30;;;;;;10398431;28;20236;-75
2022/11/23 14:00:48;;;;;;;2.23;1.40;;;12.70;42.30;;;;;;10401361;28;20241;-75
2022/11/23 14:05:59;;;;;;;2.03;1.47;;;12.70;41.20;;;;;;10396102;28;20241;-75
2022/11/23 14:11:12;;;;;;;3.53;1.73;;;12.60;41.40;;;;;;10401155;28;20237;-74
2022/11/23 14:16:23;;;;;;;3.10;1.87;;;12.60;41.20;;;;;;10400822;28;20252;-75
2022/11/23 14:21:32;;;;;;;2.40;1.83;;;12.60;41.50;;;;;;10393633;28;20299;-75
2022/11/23 14:26:45;;;;;;;2.87;1.63;;;12.60;41.20;;;;;;10399823;28;20237;-75
2022/11/23 14:32:13;;;;;;;2.97;2.13;;;12.60;41.30;;;;;;10396275;28;20233;-75
2022/11/23 14:37:25;;;;;;;3.53;1.77;;;12.50;40.90;;;;;;10399588;28;20229;-75
2022/11/23 14:42:31;;;;;;;2.43;1.53;;;12.50;41.30;;;;;;10398457;28;20233;-75
2022/11/23 14:47:35;;;;;;;4.43;1.80;;;12.50;41.70;;;;;;10394749;28;20229;-75
2022/11/23 14:52:39;;;;;;;2.80;1.70;;;12.50;41.50;;;;;;10395650;28;20918;-75
2022/11/23 14:57:46;;;;;;;2.80;1.40;;;12.50;42.30;;;;;;10395698;28;20236;-75
2022/11/23 15:02:51;;;;;;;2.63;1.50;;;12.40;41.40;;;;;;10396040;28;20229;-75
2022/11/23 15:07:58;;;;;;;2.50;1.70;;;12.40;41.90;;;;;;10394950;28;20570;-75
2022/11/23 15:13:01;;;;;;;3.13;1.70;;;12.40;41.60;;;;;;10394979;28;20298;-70
2022/11/23 15:18:06;;;;;;;3.20;2.20;;;12.30;42.00;;;;;;10396615;28;20229;-75
2022/11/23 15:23:25;;;;;;;2.53;2.23;;;12.30;41.80;;;;;;10397375;28;20237;-75
2022/11/23 15:28:34;;;;;;;4.00;2.20;;;12.30;42.00;;;;;;10394663;28;20905;-73
2022/11/23 15:33:38;;;;;;;3.60;2.30;;;12.20;44.50;;;;;;10396220;28;20271;-76
2022/11/23 15:38:42;;;;;;;3.97;2.97;;;12.30;43.70;;;;;;10396683;28;20225;-76
2022/11/23 15:43:53;;;;;;;4.20;3.00;;;12.50;43.20;;;;;;10391189;28;20241;-76
2022/11/23 15:48:58;;;;;;;4.23;3.07;;;12.50;41.60;;;;;;10400461;28;20222;-76
2022/11/23 15:54:01;;;;;;;6.17;3.90;;;12.50;41.60;;;;;;10395471;28;20230;-76
2022/11/23 15:59:16;;;;;;;7.00;5.37;;;12.40;41.60;;;;;;10390399;28;20209;-76
2022/11/23 16:04:27;;;;;;;8.40;6.40;;;12.20;40.90;;;;;;10393850;28;20225;-76
2022/11/23 16:09:39;;;;;;;7.83;6.90;;;12.10;40.30;;;;;;10395080;28;20237;-76
2022/11/23 16:14:56;;;;;;;9.23;8.33;;;11.90;40.20;;;;;;10391569;28;20245;-68
2022/11/23 16:20:04;;;;;;;11.93;10.50;;;11.70;40.90;;;;;;10392369;28;20229;-68
2022/11/23 16:25:16;;;;;;;9.10;8.07;;;11.50;39.90;;;;;;10392535;28;20716;-67
2022/11/23 16:30:23;;;;;;;19.77;15.67;;;11.40;41.00;;;;;;10396217;28;20218;-67
2022/11/23 16:35:28;;;;;;;20.53;17.33;;;11.20;40.20;;;;;;10395230;28;20594;-67
2022/11/23 16:40:31;;;;;;;23.03;18.60;;;11.10;40.90;;;;;;10394281;28;20230;-67
2022/11/23 16:45:34;;;;;;;19.47;15.40;;;10.90;40.70;;;;;;10394216;28;20234;-67
2022/11/23 16:50:39;;;;;;;15.10;13.53;;;10.80;40.60;;;;;;10397560;28;20229;-67
2022/11/23 16:55:42;;;;;;;14.23;11.27;;;10.70;40.50;;;;;;10401823;28;20226;-67
2022/11/23 17:00:47;;;;;;;12.33;8.63;;;10.60;40.50;;;;;;10400096;28;20275;-67
2022/11/23 17:05:52;;;;;;;10.93;9.27;;;10.50;40.40;;;;;;10403392;28;20241;-67
2022/11/23 17:10:56;;;;;;;9.90;8.30;;;10.30;40.20;;;;;;10400643;28;20246;-67
2022/11/23 17:15:59;;;;;;;10.03;7.50;;;10.20;40.20;;;;;;10394036;28;20226;-66
2022/11/23 17:21:04;;;;;;;8.37;7.10;;;10.10;40.30;;;;;;10399025;28;20230;-68
2022/11/23 17:26:12;;;;;;;10.63;6.90;;;10.00;40.30;;;;;;10397641;28;20221;-68
2022/11/23 17:31:15;;;;;;;10.10;9.10;;;9.90;41.50;;;;;;10398370;28;20233;-67
2022/11/23 17:36:20;;;;;;;10.53;9.43;;;9.80;41.40;;;;;;10399135;28;20241;-69
2022/11/23 17:41:23;;;;;;;10.17;9.17;;;9.60;41.30;;;;;;10395710;28;20233;-70
2022/11/23 17:46:30;;;;;;;9.53;8.13;;;9.50;41.50;;;;;;10395674;28;20275;-70
2022/11/23 17:51:34;;;;;;;10.80;8.67;;;9.40;41.60;;;;;;10398073;28;20241;-76
2022/11/23 17:56:38;;;;;;;7.57;6.87;;;9.30;41.80;;;;;;10397630;28;20292;-70
2022/11/23 18:01:41;;;;;;;8.23;7.43;;;9.20;41.90;;;;;;10394603;28;20694;-70
2022/11/23 18:06:46;;;;;;;8.07;7.13;;;9.10;42.20;;;;;;10399085;28;20308;-70
2022/11/23 18:11:49;;;;;;;7.83;7.00;;;9.10;42.20;;;;;;10395885;28;20756;-70
2022/11/23 18:16:52;;;;;;;8.20;7.00;;;9.00;42.30;;;;;;10399547;28;20225;-70
2022/11/23 18:21:57;;;;;;;6.13;5.53;;;9.00;42.40;;;;;;10397571;28;20276;-70
2022/11/23 18:27:00;;;;;;;7.03;5.83;;;8.90;42.30;;;;;;10394855;28;20249;-74
2022/11/23 18:32:05;;;;;;;6.77;5.50;;;8.90;42.40;;;;;;10394794;28;20232;-74
2022/11/23 18:37:10;;;;;;;5.27;4.63;;;8.80;42.50;;;;;;10398392;28;20230;-74
2022/11/23 18:42:13;;;;;;;5.33;4.33;;;8.80;42.60;;;;;;10391630;28;20253;-74
2022/11/23 18:47:16;;;;;;;5.27;4.30;;;8.70;43.00;;;;;;10393537;28;20229;-74
2022/11/23 18:52:21;;;;;;;6.10;5.40;;;8.70;43.20;;;;;;10392960;28;20244;-74
2022/11/23 18:57:24;;;;;;;5.80;5.13;;;8.70;43.30;;;;;;10394393;28;20916;-74
2022/11/23 19:02:27;;;;;;;4.37;3.97;;;8.70;43.20;;;;;;10399969;28;20234;-74
2022/11/23 19:07:32;;;;;;;4.57;4.00;;;8.70;43.00;;;;;;10397179;28;20222;-67
2022/11/23 19:12:35;;;;;;;5.03;4.43;;;8.70;42.80;;;;;;10393086;28;20292;-67
2022/11/23 19:17:41;;;;;;;5.10;4.17;;;8.60;42.60;;;;;;10398591;28;20280;-67
2022/11/23 19:22:45;;;;;;;7.57;5.87;;;8.60;42.50;;;;;;10396624;28;20246;-67
2022/11/23 19:27:50;;;;;;;6.40;5.80;;;8.50;43.20;;;;;;10393175;28;20233;-67
2022/11/23 19:32:53;;;;;;;9.87;8.80;;;8.50;42.50;;;;;;10396044;28;20328;-67
2022/11/23 19:37:58;;;;;;;10.80;8.97;;;8.40;42.60;;;;;;10396223;28;20234;-67
2022/11/23 19:43:01;;;;;;;10.90;8.40;;;8.30;42.90;;;;;;10391216;28;20275;-73
2022/11/23 19:48:05;;;;;;;10.27;7.37;;;8.20;42.90;;;;;;10393226;28;20214;-68
2022/11/23 19:53:09;;;;;;;8.80;7.90;;;8.20;43.10;;;;;;10395290;28;20222;-69
2022/11/23 19:58:15;;;;;;;15.30;10.00;;;8.20;43.10;;;;;;10395658;28;20226;-69
2022/11/23 20:03:18;;;;;;;12.37;9.60;;;8.20;43.00;;;;;;10394531;28;20284;-67
2022/11/23 20:08:23;;;;;;;11.90;9.20;;;8.10;43.20;;;;;;10389417;28;20288;-67
2022/11/23 20:13:26;;;;;;;11.37;9.30;;;8.10;43.50;;;;;;10393125;28;20240;-67
2022/11/23 20:18:29;;;;;;;9.37;8.07;;;8.10;43.50;;;;;;10391582;28;20792;-67
2022/11/23 20:23:34;;;;;;;6.33;5.53;;;8.10;43.50;;;;;;10399035;28;20279;-67
2022/11/23 20:28:37;;;;;;;7.40;5.30;;;8.10;44.00;;;;;;10399949;28;20232;-69
2022/11/23 20:33:40;;;;;;;6.70;4.80;;;8.00;44.20;;;;;;10401423;28;20247;-69
2022/11/23 20:38:45;;;;;;;6.87;5.10;;;8.00;44.50;;;;;;10398347;28;20229;-69
2022/11/23 20:43:52;;;;;;;5.87;5.03;;;8.00;45.10;;;;;;10398815;28;20237;-73
2022/11/23 20:48:56;;;;;;;5.33;4.47;;;8.00;45.20;;;;;;10400132;28;20228;-67
2022/11/23 20:54:00;;;;;;;3.90;3.10;;;8.00;45.20;;;;;;10399501;28;20725;-67
2022/11/23 20:59:04;;;;;;;3.30;2.60;;;8.10;45.30;;;;;;10394273;28;20229;-69
2022/11/23 21:04:07;;;;;;;4.90;3.00;;;8.10;45.30;;;;;;10394791;28;20229;-73
2022/11/23 21:09:12;;;;;;;2.93;2.20;;;8.20;45.40;;;;;;10399674;28;20249;-69
2022/11/23 21:14:17;;;;;;;3.07;2.27;;;8.30;45.90;;;;;;10397347;28;20236;-69
2022/11/23 21:19:22;;;;;;;1.80;1.70;;;8.40;46.00;;;;;;10397405;28;20229;-69
2022/11/23 21:24:28;;;;;;;4.27;2.27;;;8.40;45.80;;;;;;10395201;28;20234;-67
2022/11/23 21:29:31;;;;;;;2.13;1.93;;;8.50;46.00;;;;;;10391121;28;20236;-67
2022/11/23 21:34:34;;;;;;;1.60;1.37;;;8.50;45.60;;;;;;10389747;28;20299;-67
2022/11/23 21:39:40;;;;;;;2.00;1.90;;;8.60;45.70;;;;;;10396127;28;20222;-66
2022/11/23 21:44:43;;;;;;;2.43;1.60;;;8.60;45.70;;;;;;10396449;28;20238;-66
2022/11/23 21:49:46;;;;;;;1.70;1.53;;;8.60;45.70;;;;;;10393560;28;20738;-69
2022/11/23 21:54:50;;;;;;;2.90;2.43;;;8.60;45.70;;;;;;10394045;28;20238;-69
2022/11/23 21:59:54;;;;;;;3.40;3.10;;;8.60;45.90;;;;;;10394481;28;20583;-66
2022/11/23 22:04:57;;;;;;;3.17;2.87;;;8.60;45.80;;;;;;10395470;28;20233;-67
2022/11/23 22:10:01;;;;;;;1.73;1.63;;;8.60;45.90;;;;;;10392363;28;20230;-67
2022/11/23 22:15:05;;;;;;;1.60;1.50;;;8.60;46.20;;;;;;10395641;28;20229;-67
2022/11/23 22:20:10;;;;;;;2.17;2.00;;;8.70;46.10;;;;;;10391586;28;20234;-67
2022/11/23 22:25:15;;;;;;;3.67;2.30;;;8.70;46.20;;;;;;10393684;28;20316;-69
2022/11/23 22:30:18;;;;;;;2.27;2.07;;;8.70;46.50;;;;;;10393487;28;20229;-69
2022/11/23 22:35:21;;;;;;;3.23;2.77;;;8.80;46.20;;;;;;10391812;28;20242;-69
2022/11/23 22:40:31;;;;;;;2.77;2.20;;;8.80;46.20;;;;;;10387705;28;20230;-69
2022/11/23 22:45:34;;;;;;;2.23;2.03;;;8.80;47.10;;;;;;10393424;28;20352;-69
2022/11/23 22:50:37;;;;;;;2.10;1.90;;;8.80;46.10;;;;;;10391493;28;20230;-69
2022/11/23 22:55:42;;;;;;;1.90;1.80;;;8.80;46.10;;;;;;10391423;28;20753;-69
2022/11/23 23:00:45;;;;;;;2.10;1.97;;;8.80;46.70;;;;;;10392602;28;20230;-69
2022/11/23 23:05:54;;;;;;;2.13;2.03;;;8.80;46.80;;;;;;10393451;28;20611;-69
2022/11/23 23:11:03;;;;;;;2.53;2.33;;;8.80;47.80;;;;;;10396335;28;20230;-69
2022/11/23 23:16:08;;;;;;;2.50;2.30;;;8.90;48.30;;;;;;10398607;28;20238;-69
2022/11/23 23:21:13;;;;;;;2.67;2.47;;;8.90;47.60;;;;;;10398253;28;20234;-69
2022/11/23 23:26:20;;;;;;;2.70;2.50;;;9.00;47.60;;;;;;10395901;28;20272;-69
2022/11/23 23:31:23;;;;;;;2.77;2.57;;;9.10;48.00;;;;;;10398336;28;20725;-70
2022/11/23 23:36:26;;;;;;;3.00;2.70;;;9.10;47.50;;;;;;10396822;28;20318;-70
2022/11/23 23:41:31;;;;;;;2.77;2.57;;;9.20;47.50;;;;;;10394754;28;20238;-69
2022/11/23 23:46:34;;;;;;;2.90;2.70;;;9.20;47.90;;;;;;10396815;28;20232;-69
2022/11/23 23:51:37;;;;;;;4.47;2.80;;;9.30;47.70;;;;;;10396336;28;20234;-69
2022/11/23 23:56:42;;;;;;;4.23;2.90;;;9.30;47.60;;;;;;10397819;28;20238;-69
